KIX weather

Kansai International Airport
Osaka, Ōsaka Prefecture, Japan

Public forecast

Using degrees Celsius for public forecast. Weather courtesy of forecast.io.

Current aviation weather report (METAR) for Kansai International Airport

Retrieved 2019/10/19 00:30 UTC (12 minutes ago):

RJBB 190030Z 05011KT 9999 -SHRA FEW010 SCT035 BKN070 22/20 Q1014 NOSIG

Aviation forecast (TAF) for Kansai International Airport

Retrieved 2019-10-19 00:00 UTC (42 minutes ago):

TAF RJBB 182305Z 1900/2006 08008KT 9999 -SHRA FEW010 SCT020 BKN040 BECMG 1903/1905 28005KT TEMPO 1906/1912 4000 -SHRA BR BECMG 1908/1910 02012KT